Time;durP1;ratioP1;P1;durP2;ratioP2;P2;SDS_P1;SDS_P2;PMS_P1;PMS_P2;Temp;Humidity;BMP_temperature;BMP_pressure;BME280_temperature;BME280_humidity;BME280_pressure;Samples;Min_cycle;Max_cycle;Signal;HPM_P1;HPM_P2
2021/05/05 00:01:58;;;;;;;8.10;1.10;;;7.00;99.90;;;;;;5075608;28;20503;-63
2021/05/05 00:04:28;;;;;;;6.80;1.88;;;7.00;99.90;;;;;;5081461;28;20094;-63
2021/05/05 00:11:15;;;;;;;9.30;1.48;;;7.00;99.90;;;;;;5068605;28;20040;-63
2021/05/05 00:13:52;;;;;;;7.45;1.45;;;7.00;99.90;;;;;;5074028;28;20051;-63
2021/05/05 00:16:41;;;;;;;10.73;2.13;;;7.00;99.90;;;;;;5086212;28;20056;-63
2021/05/05 00:19:07;;;;;;;11.18;1.30;;;7.00;99.90;;;;;;5081682;28;20048;-63
2021/05/05 00:22:00;;;;;;;15.65;2.63;;;7.00;99.90;;;;;;5079391;28;20036;-63
2021/05/05 00:28:45;;;;;;;9.98;1.50;;;7.00;99.90;;;;;;5125918;27;20038;-63
2021/05/05 00:31:19;;;;;;;7.07;1.77;;;7.00;99.90;;;;;;5111347;28;20035;-62
2021/05/05 00:33:54;;;;;;;5.13;1.08;;;7.00;99.90;;;;;;5121926;27;20039;-62
2021/05/05 00:36:53;;;;;;;5.32;1.15;;;7.10;99.90;;;;;;5094282;28;20040;-63
2021/05/05 00:39:20;;;;;;;8.93;1.58;;;7.00;99.90;;;;;;5134532;27;20522;-62
2021/05/05 00:41:49;;;;;;;12.65;1.85;;;7.00;99.90;;;;;;5114361;27;20051;-62
2021/05/05 00:44:34;;;;;;;8.18;1.40;;;7.00;99.90;;;;;;5114143;28;20051;-62
2021/05/05 00:47:00;;;;;;;9.43;1.20;;;7.00;99.90;;;;;;5097762;28;20048;-62
2021/05/05 00:53:54;;;;;;;7.57;1.67;;;7.00;99.90;;;;;;5119110;27;20030;-62
2021/05/05 00:56:23;;;;;;;8.88;1.40;;;7.00;99.90;;;;;;5109560;28;20395;-62
2021/05/05 00:58:55;;;;;;;5.30;1.40;;;7.10;99.90;;;;;;5093604;28;20076;-62
2021/05/05 01:01:56;;;;;;;10.50;1.20;;;7.10;99.90;;;;;;5125613;27;20118;-62
2021/05/05 01:04:36;;;;;;;9.70;1.20;;;7.10;99.90;;;;;;5078411;28;20052;-62
2021/05/05 01:07:08;;;;;;;7.18;1.05;;;7.10;99.90;;;;;;5114043;28;20050;-63
2021/05/05 01:13:52;;;;;;;5.80;1.30;;;7.10;99.90;;;;;;5113676;28;20049;-62
2021/05/05 01:16:27;;;;;;;10.93;1.55;;;7.10;99.90;;;;;;5116703;28;20056;-63
2021/05/05 01:18:54;;;;;;;9.10;1.30;;;7.10;99.90;;;;;;5093266;28;20047;-62
2021/05/05 01:21:24;;;;;;;8.98;1.42;;;7.10;99.90;;;;;;5092204;28;20051;-62
2021/05/05 01:23:52;;;;;;;9.30;1.90;;;7.10;99.90;;;;;;5103050;28;20454;-63
2021/05/05 01:26:30;;;;;;;7.60;1.70;;;7.10;99.90;;;;;;5093445;28;20072;-62
2021/05/05 01:29:28;;;;;;;15.30;1.95;;;7.00;99.90;;;;;;5107609;28;20047;-62
2021/05/05 01:32:00;;;;;;;8.38;2.00;;;6.90;99.90;;;;;;5079079;28;20043;-62
2021/05/05 01:34:39;;;;;;;10.20;2.38;;;6.90;99.90;;;;;;5097100;28;20475;-62
2021/05/05 01:37:31;;;;;;;8.70;1.52;;;6.80;99.90;;;;;;5113140;28;20039;-62
2021/05/05 01:43:57;;;;;;;8.38;1.20;;;6.80;99.90;;;;;;5118461;28;20038;-62
2021/05/05 01:46:24;;;;;;;5.82;1.42;;;6.70;99.90;;;;;;5094970;28;20066;-63
2021/05/05 01:56:30;;;;;;;8.73;1.55;;;6.80;99.90;;;;;;5113201;28;20054;-62
2021/05/05 01:59:04;;;;;;;12.20;1.88;;;6.80;99.90;;;;;;5109623;28;20036;-62
2021/05/05 02:01:31;;;;;;;12.75;1.80;;;6.80;99.90;;;;;;5113751;28;20043;-62
2021/05/05 02:04:02;;;;;;;4.22;1.33;;;6.80;99.90;;;;;;5092600;28;20043;-62
2021/05/05 02:06:35;;;;;;;6.93;1.70;;;6.80;99.90;;;;;;5113877;28;20043;-62
2021/05/05 02:09:04;;;;;;;8.60;1.88;;;6.80;99.90;;;;;;5091817;28;20101;-62
2021/05/05 02:11:33;;;;;;;6.45;1.20;;;6.80;99.90;;;;;;5125267;28;20425;-62
2021/05/05 02:14:03;;;;;;;4.20;1.02;;;6.80;99.90;;;;;;5092562;28;20071;-62
2021/05/05 02:16:35;;;;;;;13.10;1.30;;;6.80;99.90;;;;;;5118754;28;20039;-62
2021/05/05 02:30:42;;;;;;;11.82;1.88;;;6.80;99.90;;;;;;5110732;27;20396;-63
2021/05/05 02:34:05;;;;;;;7.75;1.40;;;6.80;99.90;;;;;;5119398;27;20058;-63
2021/05/05 02:37:04;;;;;;;6.85;1.40;;;6.80;99.90;;;;;;5112129;28;20036;-62
2021/05/05 02:39:33;;;;;;;8.82;1.42;;;6.70;99.90;;;;;;5104481;27;20092;-63
2021/05/05 02:42:13;;;;;;;5.28;1.20;;;6.70;99.90;;;;;;5103911;27;20062;-62
2021/05/05 02:49:05;;;;;;;5.75;1.15;;;6.70;99.90;;;;;;5133214;27;20042;-62
2021/05/05 02:51:37;;;;;;;9.68;1.17;;;6.60;99.90;;;;;;5125374;27;20057;-62
2021/05/05 02:54:09;;;;;;;5.05;1.25;;;6.60;99.90;;;;;;5095963;28;20123;-62
2021/05/05 03:00:16;;;;;;;8.63;1.25;;;6.50;99.90;;;;;;5105081;28;20493;-62
2021/05/05 03:06:34;;;;;;;10.50;1.15;;;6.50;99.90;;;;;;5116597;27;20027;-62
2021/05/05 03:09:06;;;;;;;8.43;1.40;;;6.50;99.90;;;;;;5115996;28;20051;-62
2021/05/05 03:11:38;;;;;;;8.93;0.90;;;6.50;99.90;;;;;;5095959;28;20048;-62
2021/05/05 03:14:11;;;;;;;7.68;1.20;;;6.60;99.90;;;;;;5095512;28;20119;-62
2021/05/05 03:16:47;;;;;;;8.55;1.70;;;6.50;99.90;;;;;;5124436;27;20043;-62
2021/05/05 03:22:54;;;;;;;8.13;1.70;;;6.50;99.90;;;;;;5101617;27;20058;-62
2021/05/05 03:29:10;;;;;;;3.55;1.00;;;6.30;99.90;;;;;;5129354;27;20058;-62
2021/05/05 03:31:42;;;;;;;9.75;1.52;;;6.20;99.90;;;;;;5077163;28;20040;-62
2021/05/05 03:34:12;;;;;;;4.38;0.98;;;6.20;99.90;;;;;;5105777;28;20047;-62
2021/05/05 03:36:39;;;;;;;8.07;1.30;;;6.20;99.90;;;;;;5116852;27;20093;-63
2021/05/05 03:39:31;;;;;;;5.18;1.00;;;6.20;99.90;;;;;;5110573;28;20478;-64
2021/05/05 03:42:08;;;;;;;3.92;0.73;;;6.10;99.90;;;;;;5097558;28;20043;-63
2021/05/05 03:44:40;;;;;;;4.45;1.05;;;6.10;99.90;;;;;;5123900;27;20040;-62
2021/05/05 03:47:13;;;;;;;7.20;1.40;;;6.10;99.90;;;;;;5111775;28;20130;-62
2021/05/05 03:49:47;;;;;;;4.35;1.15;;;6.00;99.90;;;;;;5115065;28;20044;-62
2021/05/05 03:56:37;;;;;;;8.80;1.08;;;6.00;99.90;;;;;;5118612;27;20386;-62
2021/05/05 03:59:49;;;;;;;4.10;0.93;;;6.10;99.90;;;;;;5113417;28;20067;-62
2021/05/05 04:06:35;;;;;;;6.00;1.30;;;6.20;99.90;;;;;;5114497;28;20030;-62
2021/05/05 04:09:07;;;;;;;10.00;1.42;;;6.10;99.90;;;;;;5091912;28;20040;-62
2021/05/05 04:12:09;;;;;;;6.38;1.23;;;6.20;99.90;;;;;;5077006;28;20051;-62
2021/05/05 04:22:13;;;;;;;3.83;1.17;;;5.90;99.90;;;;;;5095240;28;20040;-61
2021/05/05 04:29:24;;;;;;;9.23;2.10;;;5.70;99.90;;;;;;5073384;28;20265;-61
2021/05/05 04:36:38;;;;;;;4.20;1.08;;;5.60;99.90;;;;;;5066480;28;20052;-60
2021/05/05 04:39:09;;;;;;;5.38;0.98;;;5.70;99.90;;;;;;5069172;28;20049;-60
2021/05/05 04:41:40;;;;;;;4.50;0.80;;;5.70;99.90;;;;;;5067701;28;20048;-59
2021/05/05 04:44:41;;;;;;;8.73;1.42;;;5.80;99.90;;;;;;5073708;28;20045;-60
2021/05/05 04:47:08;;;;;;;13.57;1.52;;;5.90;99.90;;;;;;5061159;28;20045;-60
2021/05/05 04:56:43;;;;;;;9.63;1.98;;;6.00;99.90;;;;;;5068170;28;20361;-60
2021/05/05 04:59:33;;;;;;;3.95;1.52;;;6.10;99.90;;;;;;5073492;28;20044;-60
2021/05/05 05:02:02;;;;;;;11.18;2.67;;;6.20;99.90;;;;;;5069020;28;20492;-60
2021/05/05 05:05:05;;;;;;;11.15;1.52;;;6.20;99.90;;;;;;5073170;28;20068;-60
2021/05/05 05:07:32;;;;;;;9.05;1.98;;;6.20;99.90;;;;;;5070382;28;20450;-62
2021/05/05 05:09:59;;;;;;;9.38;1.70;;;6.30;99.90;;;;;;5073377;28;20094;-59
2021/05/05 05:12:28;;;;;;;6.05;1.50;;;6.30;99.90;;;;;;5072062;28;20134;-60
2021/05/05 05:15:01;;;;;;;6.15;1.60;;;6.30;99.90;;;;;;5072982;28;20480;-60
2021/05/05 05:17:32;;;;;;;14.68;1.60;;;6.40;99.90;;;;;;5066358;28;20094;-60
2021/05/05 05:20:05;;;;;;;5.97;1.30;;;6.40;99.90;;;;;;5073392;28;20042;-60
2021/05/05 05:22:34;;;;;;;15.73;2.83;;;6.40;99.90;;;;;;5075095;28;20056;-61
2021/05/05 05:25:07;;;;;;;4.03;1.40;;;6.30;99.90;;;;;;5108761;28;20088;-60
2021/05/05 05:27:34;;;;;;;5.15;1.58;;;6.40;99.90;;;;;;5113651;28;20093;-60
2021/05/05 05:30:07;;;;;;;5.20;1.17;;;6.40;99.90;;;;;;5127668;28;20062;-60
2021/05/05 05:32:35;;;;;;;6.53;1.30;;;6.50;99.90;;;;;;5108840;28;20052;-60
2021/05/05 05:35:26;;;;;;;8.85;1.50;;;6.50;99.90;;;;;;5113095;28;20047;-60
2021/05/05 05:37:57;;;;;;;11.88;1.17;;;6.50;99.90;;;;;;5095482;28;20131;-60
2021/05/05 05:40:53;;;;;;;11.60;1.85;;;6.50;99.90;;;;;;5113485;28;20054;-60
2021/05/05 05:47:39;;;;;;;10.85;2.28;;;6.60;99.90;;;;;;5114608;28;20114;-60
2021/05/05 05:50:12;;;;;;;13.00;1.92;;;6.60;99.90;;;;;;5114101;28;20172;-60
2021/05/05 05:52:44;;;;;;;12.38;1.85;;;6.70;99.90;;;;;;5100898;28;20124;-60
2021/05/05 05:55:14;;;;;;;11.57;1.60;;;6.80;99.90;;;;;;5089865;28;20039;-60
2021/05/05 05:57:43;;;;;;;9.93;1.98;;;6.80;99.90;;;;;;5116900;28;20112;-60
2021/05/05 06:00:33;;;;;;;5.47;1.48;;;6.80;99.90;;;;;;5116915;28;20619;-60
2021/05/05 06:03:12;;;;;;;11.50;1.70;;;6.90;99.90;;;;;;5099513;28;20040;-60
2021/05/05 06:05:56;;;;;;;7.47;1.42;;;6.90;99.90;;;;;;5117578;27;20047;-60
2021/05/05 06:08:37;;;;;;;11.63;1.75;;;7.00;99.90;;;;;;5124831;27;20096;-60
2021/05/05 06:15:12;;;;;;;11.93;2.05;;;7.00;99.90;;;;;;5128067;27;20088;-60
2021/05/05 06:17:42;;;;;;;7.43;1.70;;;7.00;99.90;;;;;;5115947;28;20043;-60
2021/05/05 06:20:21;;;;;;;6.85;1.33;;;7.10;99.90;;;;;;5116405;28;20517;-59
2021/05/05 06:22:48;;;;;;;9.20;2.00;;;7.10;99.90;;;;;;5113641;28;20048;-59
2021/05/05 06:25:18;;;;;;;11.75;1.67;;;7.10;99.90;;;;;;5117092;28;20066;-60
2021/05/05 06:27:45;;;;;;;12.23;1.60;;;7.20;99.90;;;;;;5129869;27;20047;-60
2021/05/05 06:30:15;;;;;;;10.45;2.08;;;7.20;99.90;;;;;;5125499;27;20050;-60
2021/05/05 06:32:45;;;;;;;12.50;2.22;;;7.30;99.90;;;;;;5113284;28;20527;-60
2021/05/05 06:35:19;;;;;;;10.90;1.83;;;7.30;99.90;;;;;;5116861;28;20147;-61
2021/05/05 06:37:47;;;;;;;9.90;2.00;;;7.20;99.90;;;;;;5098551;28;20052;-60
2021/05/05 06:40:19;;;;;;;9.68;1.90;;;7.20;99.90;;;;;;5098349;28;20555;-60
2021/05/05 06:42:51;;;;;;;7.32;1.40;;;7.10;99.90;;;;;;5115179;28;20035;-60
2021/05/05 06:45:29;;;;;;;7.25;1.80;;;7.20;99.90;;;;;;5116610;28;20044;-60
2021/05/05 06:48:15;;;;;;;14.48;1.98;;;7.20;99.90;;;;;;5096488;28;20040;-60
2021/05/05 06:51:10;;;;;;;7.20;1.73;;;7.20;99.90;;;;;;5113774;28;20522;-60
2021/05/05 06:53:37;;;;;;;13.98;2.00;;;7.30;99.90;;;;;;5106402;27;20486;-60
2021/05/05 06:56:35;;;;;;;7.57;1.55;;;7.30;99.90;;;;;;5116106;28;20047;-60
2021/05/05 07:02:54;;;;;;;9.15;2.08;;;7.50;99.90;;;;;;5115537;28;20117;-60
2021/05/05 07:05:21;;;;;;;6.03;1.38;;;7.60;99.90;;;;;;5126084;27;20039;-60
2021/05/05 07:07:56;;;;;;;8.25;1.70;;;7.70;99.90;;;;;;5110842;28;20044;-60
2021/05/05 07:10:35;;;;;;;8.07;1.50;;;7.80;99.90;;;;;;5115436;28;20539;-60
2021/05/05 07:13:24;;;;;;;11.15;2.20;;;7.90;99.90;;;;;;5098451;27;20467;-60
2021/05/05 07:15:51;;;;;;;16.88;1.77;;;7.80;99.90;;;;;;5132479;27;20048;-60
2021/05/05 07:18:33;;;;;;;11.90;1.90;;;7.80;99.90;;;;;;5116666;27;20117;-60
2021/05/05 07:21:22;;;;;;;9.32;2.10;;;7.80;99.90;;;;;;5100625;28;20465;-61
2021/05/05 07:23:48;;;;;;;11.48;2.40;;;7.80;99.90;;;;;;5117302;27;20062;-62
2021/05/05 07:30:38;;;;;;;8.25;1.33;;;7.80;99.90;;;;;;5130429;27;20103;-61
2021/05/05 07:33:33;;;;;;;8.73;1.38;;;7.70;99.90;;;;;;5097230;28;20067;-60
2021/05/05 07:50:25;;;;;;;8.68;1.67;;;7.40;99.90;;;;;;5115026;28;20030;-62
2021/05/05 07:52:58;;;;;;;5.00;1.48;;;7.40;99.90;;;;;;5110627;28;20047;-63
2021/05/05 07:55:25;;;;;;;12.48;2.90;;;7.50;99.90;;;;;;5129423;27;20047;-60
2021/05/05 07:57:55;;;;;;;7.40;1.55;;;7.50;99.90;;;;;;5109443;28;20051;-60
2021/05/05 08:00:44;;;;;;;6.65;1.20;;;7.60;99.90;;;;;;5094656;28;20040;-60
2021/05/05 08:03:23;;;;;;;11.63;2.10;;;7.70;99.90;;;;;;5096537;28;20367;-60
2021/05/05 08:05:49;;;;;;;7.75;1.25;;;7.70;99.90;;;;;;5110939;27;20047;-60
2021/05/05 08:22:59;;;;;;;9.20;1.23;;;7.50;99.90;;;;;;5108410;28;20095;-60
2021/05/05 08:25:31;;;;;;;6.43;1.17;;;7.60;99.90;;;;;;5089620;28;20479;-60
2021/05/05 08:28:01;;;;;;;16.17;2.17;;;7.60;99.90;;;;;;5094111;28;20040;-60
2021/05/05 08:30:54;;;;;;;5.15;0.85;;;7.60;99.90;;;;;;5094101;28;20063;-60
2021/05/05 08:33:39;;;;;;;6.80;1.92;;;7.60;99.90;;;;;;5093735;28;20042;-60
2021/05/05 08:36:20;;;;;;;5.28;1.02;;;7.70;99.90;;;;;;5091574;28;20471;-60
2021/05/05 08:38:54;;;;;;;10.30;1.15;;;7.70;99.90;;;;;;5093652;28;20364;-61
2021/05/05 08:52:58;;;;;;;5.03;1.00;;;7.90;99.90;;;;;;5093450;28;20031;-60
2021/05/05 08:59:55;;;;;;;3.95;0.95;;;7.80;99.90;;;;;;5107241;28;20403;-60
2021/05/05 09:02:23;;;;;;;3.97;0.90;;;7.80;99.90;;;;;;5092424;28;20085;-60
2021/05/05 09:05:27;;;;;;;5.68;1.25;;;8.00;99.90;;;;;;5094594;28;20122;-60
2021/05/05 09:08:12;;;;;;;5.60;1.15;;;7.90;99.90;;;;;;5105614;28;20402;-64
2021/05/05 09:11:07;;;;;;;7.32;1.92;;;7.90;99.90;;;;;;5110903;28;20539;-63
2021/05/05 09:17:31;;;;;;;6.93;1.05;;;7.80;99.90;;;;;;5092938;28;20035;-66
2021/05/05 09:20:33;;;;;;;4.88;1.20;;;7.50;99.90;;;;;;5093177;28;20044;-60
2021/05/05 09:23:06;;;;;;;3.53;1.25;;;7.50;99.90;;;;;;5088129;28;20052;-64
2021/05/05 09:30:32;;;;;;;7.43;1.60;;;7.60;99.90;;;;;;5110817;28;20096;-64
2021/05/05 09:33:01;;;;;;;9.13;1.15;;;7.60;99.90;;;;;;5119410;27;20039;-63
2021/05/05 09:35:34;;;;;;;10.82;1.83;;;7.60;99.90;;;;;;5131165;27;20065;-60
2021/05/05 09:41:27;;;;;;;6.63;1.60;;;7.90;99.90;;;;;;5113581;28;20081;-64
2021/05/05 09:43:58;;;;;;;11.27;2.03;;;8.10;99.90;;;;;;5095150;28;20067;-63
2021/05/05 09:50:46;;;;;;;8.30;1.40;;;8.00;99.90;;;;;;5111020;28;20077;-60
2021/05/05 09:53:24;;;;;;;9.23;1.92;;;8.10;99.90;;;;;;5114693;28;20051;-60
2021/05/05 10:00:03;;;;;;;9.25;1.77;;;8.30;99.90;;;;;;5111361;27;20180;-60
2021/05/05 10:03:21;;;;;;;6.13;1.42;;;8.40;99.90;;;;;;5101574;27;20060;-60
2021/05/05 10:09:45;;;;;;;6.65;1.25;;;8.50;99.90;;;;;;5116828;28;20081;-60
2021/05/05 10:15:55;;;;;;;6.15;1.50;;;8.30;99.90;;;;;;5097001;28;20084;-60
2021/05/05 10:18:28;;;;;;;11.25;1.67;;;8.30;99.90;;;;;;5119837;27;20049;-60
2021/05/05 10:21:06;;;;;;;10.98;1.27;;;8.40;99.90;;;;;;5096696;28;20506;-60
2021/05/05 10:31:27;;;;;;;8.00;1.30;;;8.60;99.90;;;;;;5118436;27;20446;-60
2021/05/05 10:34:14;;;;;;;13.52;2.10;;;8.70;99.90;;;;;;5103568;27;20062;-60
2021/05/05 10:36:51;;;;;;;9.07;1.63;;;8.70;99.90;;;;;;5119384;27;20069;-60
2021/05/05 10:43:36;;;;;;;8.23;1.35;;;7.70;99.90;;;;;;5118238;27;20057;-62
2021/05/05 10:46:39;;;;;;;5.22;1.20;;;7.50;99.90;;;;;;5128998;27;20042;-59
2021/05/05 10:49:18;;;;;;;10.85;1.70;;;7.40;99.90;;;;;;5111630;28;20054;-59
2021/05/05 10:55:59;;;;;;;9.55;2.35;;;7.80;99.90;;;;;;5120782;27;20030;-60
2021/05/05 11:06:34;;;;;;;9.82;2.00;;;8.10;99.90;;;;;;5112635;27;20035;-62
2021/05/05 11:09:22;;;;;;;10.07;1.10;;;8.10;99.90;;;;;;5101211;27;20543;-60
2021/05/05 11:11:56;;;;;;;8.05;1.05;;;7.90;99.90;;;;;;5101490;28;20067;-60
2021/05/05 11:18:34;;;;;;;7.97;2.20;;;7.50;99.90;;;;;;5122702;27;20486;-60
2021/05/05 11:21:37;;;;;;;8.23;1.85;;;7.40;99.90;;;;;;5116451;28;20036;-61
2021/05/05 11:24:30;;;;;;;6.82;1.33;;;7.40;99.90;;;;;;5032837;28;20540;-61
2021/05/05 11:26:56;;;;;;;10.98;1.60;;;7.60;99.90;;;;;;5114653;27;20051;-61
2021/05/05 11:33:43;;;;;;;8.57;1.88;;;8.00;99.90;;;;;;5112003;28;20030;-61
2021/05/05 11:36:53;;;;;;;7.97;1.85;;;8.20;99.90;;;;;;5109151;28;20050;-60
2021/05/05 11:39:33;;;;;;;11.35;1.67;;;8.50;99.90;;;;;;5115061;28;20044;-60
2021/05/05 11:45:55;;;;;;;15.32;2.33;;;8.90;99.90;;;;;;5120503;27;20041;-60
2021/05/05 11:48:48;;;;;;;13.77;2.45;;;8.90;99.90;;;;;;5133922;27;20061;-60
2021/05/05 11:52:03;;;;;;;16.30;2.73;;;8.90;99.90;;;;;;5121989;27;20035;-60
2021/05/05 11:54:34;;;;;;;6.18;1.70;;;8.50;99.90;;;;;;5113446;28;20036;-60
2021/05/05 11:57:21;;;;;;;12.45;1.90;;;7.90;99.90;;;;;;5115211;28;20052;-61
2021/05/05 11:59:50;;;;;;;12.35;2.17;;;7.60;99.90;;;;;;5114940;28;20040;-62
2021/05/05 12:02:23;;;;;;;8.60;1.92;;;7.50;99.90;;;;;;5129405;27;20123;-61
2021/05/05 12:04:51;;;;;;;8.93;1.50;;;7.60;99.90;;;;;;5119589;27;20482;-61
2021/05/05 12:07:24;;;;;;;6.35;1.50;;;7.60;99.90;;;;;;5109650;28;20097;-61
2021/05/05 12:09:55;;;;;;;8.05;1.50;;;7.40;99.90;;;;;;5095549;28;20122;-61
2021/05/05 12:12:29;;;;;;;12.45;2.78;;;7.50;99.90;;;;;;5096630;28;20048;-61
2021/05/05 12:15:31;;;;;;;;;;;7.50;99.90;;;;;;5111201;28;20040;-61
2021/05/05 12:22:22;;;;;;;13.02;3.15;;;8.00;99.90;;;;;;5124876;27;20049;-61
2021/05/05 12:28:36;;;;;;;11.88;1.80;;;7.90;99.90;;;;;;5081742;28;20082;-62
2021/05/05 12:31:18;;;;;;;7.13;1.20;;;7.70;99.90;;;;;;5102800;28;20040;-61
2021/05/05 12:37:24;;;;;;;11.18;2.72;;;7.80;99.90;;;;;;5109872;27;20036;-61
2021/05/05 12:39:52;;;;;;;13.65;2.55;;;8.00;99.90;;;;;;5112932;27;20055;-61
2021/05/05 12:42:35;;;;;;;17.70;2.58;;;8.30;99.90;;;;;;5114307;28;20070;-61
2021/05/05 12:45:23;;;;;;;11.50;1.88;;;8.50;99.90;;;;;;5114565;28;20093;-61
2021/05/05 12:48:05;;;;;;;7.25;1.92;;;8.60;99.90;;;;;;5100221;27;20379;-61
2021/05/05 12:54:57;;;;;;;13.27;2.30;;;8.90;99.90;;;;;;5113492;28;20061;-61
2021/05/05 12:57:59;;;;;;;17.58;3.13;;;9.00;99.90;;;;;;5114089;28;20087;-61
2021/05/05 13:00:32;;;;;;;7.82;1.98;;;9.10;99.90;;;;;;5114218;28;20475;-62
2021/05/05 13:03:26;;;;;;;15.15;2.30;;;9.20;99.90;;;;;;5122425;27;20121;-69
2021/05/05 13:13:07;;;;;;;11.27;2.00;;;9.40;99.90;;;;;;5104344;28;20047;-64
2021/05/05 13:15:59;;;;;;;12.10;2.25;;;9.50;99.90;;;;;;5099536;28;20044;-65
2021/05/05 13:39:51;;;;;;;11.52;2.22;;;9.90;99.90;;;;;;5109488;28;20050;-68
2021/05/05 13:43:03;;;;;;;16.67;2.10;;;9.90;99.90;;;;;;5129613;28;20039;-63
2021/05/05 13:52:24;;;;;;;6.32;1.98;;;9.70;99.90;;;;;;5110538;28;20039;-69
2021/05/05 13:55:24;;;;;;;15.30;2.40;;;9.70;99.90;;;;;;5108466;28;20036;-67
2021/05/05 13:58:03;;;;;;;8.52;1.90;;;9.70;99.90;;;;;;5096974;28;20075;-66
2021/05/05 14:01:06;;;;;;;10.82;2.78;;;9.60;99.90;;;;;;5113991;28;20051;-67
2021/05/05 14:07:22;;;;;;;7.82;1.95;;;9.50;99.90;;;;;;5113492;28;20260;-71
2021/05/05 14:09:52;;;;;;;15.55;3.00;;;9.60;99.90;;;;;;5100709;28;20047;-71
2021/05/05 14:12:21;;;;;;;15.35;2.50;;;9.60;99.90;;;;;;5092892;28;20557;-69
2021/05/05 14:14:52;;;;;;;12.88;2.25;;;9.60;99.90;;;;;;5116957;28;20119;-70
2021/05/05 14:17:20;;;;;;;15.07;2.28;;;9.60;99.90;;;;;;5108648;28;20192;-66
2021/05/05 14:19:52;;;;;;;13.20;2.38;;;9.70;99.90;;;;;;5117190;28;20116;-68
2021/05/05 14:22:48;;;;;;;11.20;2.83;;;9.60;99.90;;;;;;5132442;27;20043;-68
2021/05/05 14:25:39;;;;;;;12.00;2.15;;;9.50;99.90;;;;;;5122279;27;20407;-66
2021/05/05 14:28:50;;;;;;;8.38;2.28;;;9.60;99.90;;;;;;5108177;27;20039;-64
2021/05/05 14:35:36;;;;;;;13.88;2.80;;;9.80;99.90;;;;;;5075873;28;20126;-71
2021/05/05 14:38:23;;;;;;;7.70;1.90;;;9.70;99.90;;;;;;5060957;28;20094;-66
2021/05/05 14:40:55;;;;;;;11.77;2.50;;;9.70;99.90;;;;;;5078518;28;20438;-62
2021/05/05 14:43:37;;;;;;;16.63;2.25;;;9.80;99.90;;;;;;5062069;28;20051;-62
2021/05/05 14:50:00;;;;;;;17.35;2.78;;;9.80;99.90;;;;;;5077219;28;20581;-64
2021/05/05 14:52:30;;;;;;;6.47;1.80;;;9.90;99.90;;;;;;5086354;28;20089;-64
2021/05/05 14:55:13;;;;;;;10.63;1.95;;;10.10;99.90;;;;;;5069899;28;20093;-64
2021/05/05 14:58:21;;;;;;;7.32;2.47;;;10.20;99.90;;;;;;5079199;28;20093;-64
2021/05/05 15:00:59;;;;;;;13.52;3.35;;;10.10;99.90;;;;;;5082926;28;20047;-63
2021/05/05 15:07:36;;;;;;;9.73;2.80;;;9.90;99.90;;;;;;5079681;28;20495;-63
2021/05/05 15:13:17;;;;;;;9.25;2.10;;;9.90;99.90;;;;;;5075169;28;20044;-64
2021/05/05 15:16:51;;;;;;;11.88;2.25;;;9.80;99.90;;;;;;5060406;28;20045;-64
2021/05/05 15:53:21;;;;;;;12.20;2.25;;;9.40;99.90;;;;;;5119869;27;20062;-64
2021/05/05 15:56:07;;;;;;;15.25;2.50;;;9.50;99.90;;;;;;5115241;28;20047;-63
2021/05/05 15:58:53;;;;;;;11.00;2.33;;;9.50;99.90;;;;;;5092019;28;20386;-64
2021/05/05 16:18:10;;;;;;;12.70;3.15;;;9.10;99.90;;;;;;5120312;27;19930;-63
2021/05/05 16:21:28;;;;;;;13.63;1.60;;;9.00;99.90;;;;;;5117528;27;20413;-64
2021/05/05 16:31:44;;;;;;;10.40;2.08;;;9.40;99.90;;;;;;5007533;28;20125;-63
2021/05/05 16:54:01;;;;;;;10.43;2.20;;;8.90;99.90;;;;;;4994603;28;20592;-63
2021/05/05 16:56:33;;;;;;;13.20;2.00;;;8.80;99.90;;;;;;5015675;27;20073;-62
2021/05/05 17:13:09;;;;;;;12.70;2.22;;;8.90;99.90;;;;;;5127532;28;20531;-62
2021/05/05 17:15:50;;;;;;;10.40;1.50;;;8.90;99.90;;;;;;5131187;28;20070;-62
2021/05/05 17:21:22;;;;;;;9.35;1.77;;;8.70;99.90;;;;;;5097908;28;20040;-62
2021/05/05 17:23:53;;;;;;;8.70;1.73;;;8.70;99.90;;;;;;5126080;28;20201;-63
2021/05/05 17:29:12;;;;;;;11.02;1.67;;;8.70;99.90;;;;;;5113663;28;20039;-63
2021/05/05 17:38:23;;;;;;;7.50;1.60;;;8.50;99.90;;;;;;5113456;28;20053;-63
2021/05/05 17:44:44;;;;;;;10.07;1.77;;;8.40;99.90;;;;;;5113340;28;20040;-63
2021/05/05 18:20:56;;;;;;;8.70;1.85;;;7.80;99.90;;;;;;5115881;28;20039;-63
2021/05/05 18:23:50;;;;;;;7.03;1.70;;;7.80;99.90;;;;;;5097866;27;20047;-62
2021/05/05 18:33:20;;;;;;;10.25;2.35;;;7.60;99.90;;;;;;5103144;28;20498;-63
2021/05/05 18:35:51;;;;;;;10.65;1.60;;;7.60;99.90;;;;;;5056025;28;20041;-63
2021/05/05 18:38:19;;;;;;;8.73;1.50;;;7.60;99.90;;;;;;5084347;28;20059;-63
2021/05/05 18:59:32;;;;;;;8.07;1.50;;;7.30;99.90;;;;;;5075477;28;20078;-63
2021/05/05 20:22:17;;;;;;;7.55;1.35;;;6.30;99.90;;;;;;5047012;28;20076;-63
2021/05/05 22:55:46;;;;;;;6.25;1.20;;;5.40;99.90;;;;;;5119945;27;20156;-63
2021/05/05 23:12:48;;;;;;;4.78;1.08;;;5.40;99.90;;;;;;5116510;28;20047;-62
2021/05/05 23:29:58;;;;;;;6.25;1.30;;;5.40;99.90;;;;;;5106483;27;20097;-63
2021/05/05 23:32:25;;;;;;;3.13;0.80;;;5.50;99.90;;;;;;5112502;27;20495;-63
